createdAt,value
2023-03-16T00:01:07.605Z,3.20
2023-03-16T00:03:35.059Z,3.53
2023-03-16T00:06:01.641Z,3.30
2023-03-16T00:08:28.247Z,3.33
2023-03-16T00:10:54.852Z,3.33
2023-03-16T00:13:24.187Z,3.53
2023-03-16T00:15:51.825Z,3.30
2023-03-16T00:18:18.497Z,3.28
2023-03-16T00:20:45.026Z,3.47
2023-03-16T00:23:11.902Z,3.10
2023-03-16T00:25:38.417Z,3.47
2023-03-16T00:28:04.965Z,2.90
2023-03-16T00:30:32.804Z,3.00
2023-03-16T00:32:59.645Z,3.70
2023-03-16T00:35:26.248Z,3.42
2023-03-16T00:37:57.238Z,2.97
2023-03-16T00:40:24.988Z,3.72
2023-03-16T00:42:51.564Z,3.60
2023-03-16T00:45:18.083Z,3.45
2023-03-16T00:47:44.635Z,3.50
2023-03-16T00:50:13.220Z,3.45
2023-03-16T00:52:39.760Z,3.38
2023-03-16T00:55:06.758Z,3.15
2023-03-16T00:57:33.292Z,3.13
2023-03-16T01:00:00.321Z,3.17
2023-03-16T01:02:27.156Z,2.92
2023-03-16T01:04:54.685Z,3.17
2023-03-16T01:07:21.954Z,3.63
2023-03-16T01:09:49.103Z,3.50
2023-03-16T01:12:17.940Z,3.22
2023-03-16T01:14:48.066Z,3.42
2023-03-16T01:17:16.120Z,3.45
2023-03-16T01:19:43.610Z,3.50
2023-03-16T01:22:11.589Z,3.47
2023-03-16T01:24:39.663Z,3.17
2023-03-16T01:27:07.630Z,4.00
2023-03-16T01:29:34.403Z,2.67
2023-03-16T01:32:01.969Z,3.05
2023-03-16T01:34:28.685Z,2.88
2023-03-16T01:36:56.125Z,2.80
2023-03-16T01:39:29.898Z,2.80
2023-03-16T01:41:56.489Z,3.13
2023-03-16T01:44:30.455Z,2.90
2023-03-16T01:47:00.970Z,3.20
2023-03-16T01:49:33.603Z,2.97
2023-03-16T01:52:12.545Z,3.25
2023-03-16T01:54:42.459Z,2.70
2023-03-16T01:57:19.428Z,3.60
2023-03-16T01:59:58.019Z,2.97
2023-03-16T02:02:30.948Z,2.95
2023-03-16T02:05:23.093Z,3.08
2023-03-16T02:07:52.300Z,2.97
2023-03-16T02:10:20.392Z,3.17
2023-03-16T02:12:47.232Z,2.70
2023-03-16T02:15:15.291Z,3.08
2023-03-16T02:17:44.307Z,2.70
2023-03-16T02:20:23.075Z,2.53
2023-03-16T02:22:54.962Z,2.75
2023-03-16T02:25:48.681Z,2.92
2023-03-16T02:28:24.744Z,2.90
2023-03-16T02:30:53.339Z,2.80
2023-03-16T02:33:21.385Z,3.30
2023-03-16T02:35:48.117Z,2.65
2023-03-16T02:38:14.878Z,3.28
2023-03-16T02:41:13.705Z,2.95
2023-03-16T02:43:46.612Z,3.20
2023-03-16T02:46:25.457Z,2.63
2023-03-16T02:48:55.136Z,3.25
2023-03-16T02:51:21.665Z,3.38
2023-03-16T02:53:48.293Z,3.00
2023-03-16T02:56:15.167Z,3.63
2023-03-16T02:58:41.726Z,2.70
2023-03-16T03:01:13.378Z,2.80
2023-03-16T03:03:40.112Z,2.83
2023-03-16T03:06:06.738Z,3.42
2023-03-16T03:08:35.919Z,3.20
2023-03-16T03:11:02.721Z,2.80
2023-03-16T03:13:29.370Z,3.20
2023-03-16T03:15:56.003Z,2.85
2023-03-16T03:18:25.410Z,3.15
2023-03-16T03:20:52.869Z,3.10
2023-03-16T03:23:19.478Z,3.40
2023-03-16T03:25:46.206Z,2.92
2023-03-16T03:28:14.366Z,2.85
2023-03-16T03:30:41.618Z,2.97
2023-03-16T03:33:08.317Z,3.15
2023-03-16T03:35:34.980Z,2.83
2023-03-16T03:38:01.594Z,2.90
2023-03-16T03:40:28.481Z,3.17
2023-03-16T03:43:01.599Z,3.35
2023-03-16T03:45:29.780Z,3.38
2023-03-16T03:47:56.665Z,3.20
2023-03-16T03:50:24.063Z,3.33
2023-03-16T03:52:57.995Z,3.08
2023-03-16T03:55:26.418Z,2.67
2023-03-16T03:57:52.956Z,2.95
2023-03-16T04:00:21.935Z,3.38
2023-03-16T04:02:49.249Z,3.15
2023-03-16T04:05:27.527Z,2.92
2023-03-16T04:07:57.624Z,3.38
2023-03-16T04:10:26.855Z,3.28
2023-03-16T04:12:53.927Z,3.13
2023-03-16T04:15:22.186Z,3.17
2023-03-16T04:18:05.987Z,2.72
2023-03-16T04:20:32.687Z,3.25
2023-03-16T04:23:00.102Z,3.30
2023-03-16T04:25:27.568Z,3.83
2023-03-16T04:27:54.356Z,3.33
2023-03-16T04:30:23.900Z,3.03
2023-03-16T04:32:54.517Z,2.95
2023-03-16T04:35:22.281Z,3.30
2023-03-16T04:37:53.046Z,3.05
2023-03-16T04:40:24.467Z,3.70
2023-03-16T04:42:59.632Z,3.22
2023-03-16T04:45:26.701Z,3.33
2023-03-16T04:47:56.579Z,3.60
2023-03-16T04:50:23.252Z,3.47
2023-03-16T04:52:52.875Z,3.35
2023-03-16T04:55:20.649Z,3.28
2023-03-16T04:57:47.261Z,2.80
2023-03-16T05:00:21.015Z,2.95
2023-03-16T05:03:10.287Z,2.97
2023-03-16T05:05:40.908Z,3.42
2023-03-16T05:08:08.169Z,3.00
2023-03-16T05:10:36.941Z,3.08
2023-03-16T05:13:04.548Z,2.85
2023-03-16T05:15:31.541Z,2.30
2023-03-16T05:18:15.565Z,3.00
2023-03-16T05:20:42.248Z,3.15
2023-03-16T05:23:09.232Z,2.70
2023-03-16T05:25:43.405Z,3.10
2023-03-16T05:28:11.377Z,3.17
2023-03-16T05:30:54.152Z,3.00
2023-03-16T05:33:25.558Z,2.90
2023-03-16T05:35:58.462Z,3.42
2023-03-16T05:38:27.474Z,2.97
2023-03-16T05:40:55.292Z,2.72
2023-03-16T05:43:40.325Z,3.10
2023-03-16T05:46:06.971Z,2.80
2023-03-16T05:48:35.783Z,2.40
2023-03-16T05:51:05.944Z,3.53
2023-03-16T05:53:35.483Z,2.90
2023-03-16T05:56:12.663Z,3.33
2023-03-16T05:58:42.366Z,3.30
2023-03-16T06:01:11.231Z,2.92
2023-03-16T06:03:37.823Z,2.75
2023-03-16T06:06:06.421Z,3.38
2023-03-16T06:08:41.526Z,2.90
2023-03-16T06:11:11.788Z,3.03
2023-03-16T06:13:39.487Z,3.20
2023-03-16T06:16:07.234Z,3.28
2023-03-16T06:18:35.476Z,3.03
2023-03-16T06:21:03.940Z,3.13
2023-03-16T06:23:31.828Z,3.58
2023-03-16T06:25:59.563Z,2.70
2023-03-16T06:28:28.430Z,3.10
2023-03-16T06:30:56.797Z,3.00
2023-03-16T06:33:28.056Z,3.00
2023-03-16T06:35:54.783Z,2.55
2023-03-16T06:38:29.816Z,2.90
2023-03-16T06:41:16.583Z,3.28
2023-03-16T06:43:45.622Z,3.67
2023-03-16T06:46:12.577Z,3.13
2023-03-16T06:48:39.577Z,3.05
2023-03-16T06:51:07.613Z,3.05
2023-03-16T06:53:35.248Z,3.10
2023-03-16T06:56:01.836Z,3.78
2023-03-16T06:58:31.578Z,3.85
2023-03-16T07:01:04.646Z,3.63
2023-03-16T07:03:31.506Z,3.15
2023-03-16T07:08:31.206Z,3.88
2023-03-16T07:10:57.880Z,3.25
2023-03-16T07:13:24.348Z,3.30
2023-03-16T07:15:52.184Z,3.60
2023-03-16T07:18:20.960Z,3.78
2023-03-16T07:20:47.607Z,3.33
2023-03-16T07:23:15.181Z,4.00
2023-03-16T07:25:44.552Z,4.20
2023-03-16T07:28:11.712Z,3.92
2023-03-16T07:30:45.901Z,3.75
2023-03-16T07:33:20.770Z,4.80
2023-03-16T07:35:47.356Z,3.55
2023-03-16T07:38:13.916Z,4.38
2023-03-16T07:40:40.808Z,4.00
2023-03-16T07:43:13.786Z,4.40
2023-03-16T07:45:50.137Z,4.85
2023-03-16T07:48:19.397Z,5.60
2023-03-16T07:50:54.445Z,5.78
2023-03-16T07:53:22.693Z,5.18
2023-03-16T07:55:54.249Z,5.72
2023-03-16T07:58:21.606Z,5.07
2023-03-16T08:00:49.446Z,5.40
2023-03-16T08:03:16.115Z,4.88
2023-03-16T08:05:44.686Z,4.90
2023-03-16T08:08:15.950Z,4.65
2023-03-16T08:10:42.844Z,5.07
2023-03-16T08:13:13.937Z,4.93
2023-03-16T08:15:46.584Z,4.43
2023-03-16T08:18:21.408Z,4.13
2023-03-16T08:20:48.043Z,4.00
2023-03-16T08:23:15.508Z,4.28
2023-03-16T08:25:42.360Z,4.38
2023-03-16T08:28:15.704Z,4.68
2023-03-16T08:30:48.021Z,4.35
2023-03-16T08:33:25.902Z,4.68
2023-03-16T08:35:52.798Z,4.53
2023-03-16T08:38:20.148Z,5.10
2023-03-16T08:40:50.323Z,5.10
2023-03-16T08:43:19.246Z,5.03
2023-03-16T08:45:47.405Z,4.03
2023-03-16T08:48:15.555Z,4.43
2023-03-16T08:50:45.170Z,4.90
2023-03-16T08:53:13.720Z,4.03
2023-03-16T08:55:45.070Z,4.38
2023-03-16T08:58:12.316Z,4.10
2023-03-16T09:00:39.878Z,3.85
2023-03-16T09:03:07.140Z,3.85
2023-03-16T09:05:34.801Z,4.72
2023-03-16T09:08:01.793Z,3.75
2023-03-16T09:10:48.394Z,4.28
2023-03-16T09:13:16.241Z,4.45
2023-03-16T09:15:45.985Z,5.18
2023-03-16T09:18:13.617Z,5.78
2023-03-16T09:20:40.487Z,5.82
2023-03-16T09:23:07.327Z,6.15
2023-03-16T09:25:33.996Z,6.28
2023-03-16T09:28:00.959Z,6.30
2023-03-16T09:30:28.313Z,6.00
2023-03-16T09:32:55.231Z,6.45
2023-03-16T09:35:22.149Z,7.38
2023-03-16T09:38:05.280Z,7.88
2023-03-16T09:40:33.369Z,8.02
2023-03-16T09:43:05.661Z,8.10
2023-03-16T09:45:41.489Z,7.93
2023-03-16T09:48:10.916Z,6.97
2023-03-16T09:50:48.866Z,6.78
2023-03-16T09:53:30.808Z,6.28
2023-03-16T09:56:12.418Z,6.75
2023-03-16T09:58:39.320Z,6.45
2023-03-16T10:01:36.022Z,5.97
2023-03-16T10:04:15.229Z,6.05
2023-03-16T10:07:19.493Z,5.90
2023-03-16T10:09:57.764Z,5.45
2023-03-16T10:12:35.075Z,4.57
2023-03-16T10:15:13.860Z,4.30
2023-03-16T10:17:47.557Z,4.05
2023-03-16T10:20:17.609Z,3.75
2023-03-16T10:22:46.816Z,3.80
2023-03-16T10:25:19.342Z,3.35
2023-03-16T10:27:47.055Z,3.50
2023-03-16T10:30:36.190Z,3.63
2023-03-16T10:33:27.450Z,2.95
2023-03-16T10:36:12.237Z,3.10
2023-03-16T10:38:46.849Z,2.13
2023-03-16T10:41:20.204Z,2.88
2023-03-16T10:43:59.704Z,2.83
2023-03-16T10:46:28.086Z,2.33
2023-03-16T10:49:01.160Z,2.40
2023-03-16T10:51:31.124Z,2.15
2023-03-16T10:54:06.988Z,2.45
2023-03-16T10:56:37.371Z,2.10
2023-03-16T10:59:15.250Z,2.00
2023-03-16T11:01:45.292Z,2.20
2023-03-16T11:04:16.653Z,2.20
2023-03-16T11:06:55.085Z,1.83
2023-03-16T11:09:33.150Z,1.98
2023-03-16T11:12:14.202Z,2.30
2023-03-16T11:14:49.018Z,2.05
2023-03-16T11:17:21.278Z,1.98
2023-03-16T11:19:54.382Z,2.20
2023-03-16T11:22:26.054Z,2.03
2023-03-16T11:24:55.452Z,2.00
2023-03-16T11:27:26.331Z,2.30
2023-03-16T11:30:16.606Z,1.77
2023-03-16T11:32:48.869Z,2.28
2023-03-16T11:35:19.608Z,1.90
2023-03-16T11:38:12.436Z,2.30
2023-03-16T11:41:01.536Z,1.90
2023-03-16T11:43:44.875Z,2.40
2023-03-16T11:46:17.208Z,2.10
2023-03-16T11:48:59.946Z,2.10
2023-03-16T11:51:51.677Z,1.85
2023-03-16T11:54:50.273Z,2.33
2023-03-16T11:57:32.782Z,2.03
2023-03-16T12:00:13.440Z,2.30
2023-03-16T12:02:46.061Z,2.15
2023-03-16T12:05:37.989Z,2.08
2023-03-16T12:08:20.081Z,2.33
2023-03-16T12:11:16.366Z,2.60
2023-03-16T12:14:08.937Z,2.10
2023-03-16T12:16:49.414Z,2.03
2023-03-16T12:19:43.558Z,1.90
2023-03-16T12:22:29.535Z,1.92
2023-03-16T12:24:56.263Z,2.10
2023-03-16T12:27:30.148Z,1.90
2023-03-16T12:30:08.682Z,2.22
2023-03-16T12:33:01.213Z,2.10
2023-03-16T12:35:45.167Z,1.83
2023-03-16T12:38:31.882Z,1.70
2023-03-16T12:41:11.879Z,1.83
2023-03-16T12:43:38.491Z,2.25
2023-03-16T12:46:14.035Z,1.77
2023-03-16T12:48:49.020Z,1.92
2023-03-16T12:51:15.856Z,2.10
2023-03-16T12:53:53.211Z,2.13
2023-03-16T12:56:28.214Z,1.80
2023-03-16T12:58:57.582Z,2.63
2023-03-16T13:01:38.226Z,1.83
2023-03-16T13:04:15.977Z,2.10
2023-03-16T13:06:47.440Z,2.03
2023-03-16T13:09:19.206Z,1.75
2023-03-16T13:11:50.372Z,2.30
2023-03-16T13:14:44.264Z,1.92
2023-03-16T13:17:16.816Z,2.10
2023-03-16T13:19:46.580Z,1.83
2023-03-16T13:22:27.892Z,2.10
2023-03-16T13:25:25.479Z,2.13
2023-03-16T13:27:55.838Z,2.03
2023-03-16T13:30:28.650Z,2.03
2023-03-16T13:33:00.030Z,2.10
2023-03-16T13:35:30.262Z,2.47
2023-03-16T13:38:05.704Z,1.98
2023-03-16T13:40:32.921Z,2.13
2023-03-16T13:43:01.758Z,1.90
2023-03-16T13:45:32.972Z,2.53
2023-03-16T13:48:02.077Z,2.22
2023-03-16T13:50:33.414Z,2.20
2023-03-16T13:53:04.414Z,1.90
2023-03-16T13:55:36.504Z,1.60
2023-03-16T13:58:04.456Z,1.85
2023-03-16T14:00:36.983Z,1.90
2023-03-16T14:05:36.329Z,1.90
2023-03-16T14:08:04.942Z,1.92
2023-03-16T14:10:35.323Z,2.28
2023-03-16T14:13:25.517Z,1.48
2023-03-16T14:16:04.431Z,1.90
2023-03-16T14:18:34.568Z,1.42
2023-03-16T14:21:07.949Z,1.45
2023-03-16T14:23:39.200Z,1.75
2023-03-16T14:26:12.607Z,1.80
2023-03-16T14:28:39.535Z,1.52
2023-03-16T14:31:11.942Z,1.48
2023-03-16T14:33:42.580Z,1.77
2023-03-16T14:36:13.174Z,1.60
2023-03-16T14:38:41.751Z,1.60
2023-03-16T14:41:09.500Z,1.75
2023-03-16T14:43:41.142Z,1.23
2023-03-16T14:46:08.488Z,1.40
2023-03-16T14:48:35.788Z,1.35
2023-03-16T14:51:04.232Z,1.30
2023-03-16T14:53:31.715Z,1.20
2023-03-16T14:55:59.331Z,1.30
2023-03-16T14:58:26.111Z,1.30
2023-03-16T15:00:54.241Z,1.27
2023-03-16T15:03:33.062Z,1.27
2023-03-16T15:06:01.292Z,1.35
2023-03-16T15:08:33.689Z,1.05
2023-03-16T15:11:05.745Z,1.15
2023-03-16T15:13:39.675Z,1.40
2023-03-16T15:16:09.960Z,1.25
2023-03-16T15:18:39.194Z,1.30
2023-03-16T15:21:12.764Z,1.25
2023-03-16T15:23:41.568Z,1.08
2023-03-16T15:26:11.981Z,1.20
2023-03-16T15:28:38.797Z,1.30
2023-03-16T15:31:06.212Z,1.95
2023-03-16T15:33:33.440Z,1.67
2023-03-16T15:36:02.684Z,1.02
2023-03-16T15:38:33.425Z,1.50
2023-03-16T15:41:00.377Z,1.02
2023-03-16T15:43:29.182Z,1.23
2023-03-16T15:45:57.386Z,1.17
2023-03-16T15:48:27.092Z,1.10
2023-03-16T15:51:01.823Z,1.17
2023-03-16T15:53:35.606Z,1.20
2023-03-16T15:56:05.501Z,1.25
2023-03-16T15:58:34.989Z,1.05
2023-03-16T16:01:03.233Z,0.95
2023-03-16T16:03:30.766Z,1.33
2023-03-16T16:05:57.526Z,1.30
2023-03-16T16:08:24.143Z,1.17
2023-03-16T16:10:53.154Z,1.30
2023-03-16T16:13:26.768Z,1.17
2023-03-16T16:15:58.780Z,1.38
2023-03-16T16:18:35.384Z,0.90
2023-03-16T16:21:05.045Z,1.20
2023-03-16T16:23:32.517Z,1.30
2023-03-16T16:26:07.193Z,1.20
2023-03-16T16:28:34.941Z,1.20
2023-03-16T16:31:01.916Z,1.10
2023-03-16T16:33:30.944Z,1.17
2023-03-16T16:36:00.156Z,1.30
2023-03-16T16:38:28.049Z,1.27
2023-03-16T16:40:58.401Z,1.23
2023-03-16T16:43:38.803Z,1.33
2023-03-16T16:46:12.257Z,1.10
2023-03-16T16:48:49.339Z,1.17
2023-03-16T16:51:24.687Z,1.67
2023-03-16T16:53:54.297Z,1.45
2023-03-16T16:56:27.488Z,1.35
2023-03-16T16:58:55.409Z,1.10
2023-03-16T17:01:27.248Z,1.58
2023-03-16T17:03:53.901Z,0.85
2023-03-16T17:06:21.003Z,0.90
2023-03-16T17:08:47.942Z,0.93
2023-03-16T17:11:23.233Z,1.02
2023-03-16T17:13:52.621Z,1.05
2023-03-16T17:16:28.576Z,2.17
2023-03-16T17:18:55.464Z,1.35
2023-03-16T17:21:25.125Z,1.92
2023-03-16T17:23:55.024Z,1.40
2023-03-16T17:26:21.761Z,3.60
2023-03-16T17:28:52.929Z,5.28
2023-03-16T17:31:24.697Z,5.97
2023-03-16T17:33:53.235Z,7.10
2023-03-16T17:36:21.136Z,1.85
2023-03-16T17:38:48.325Z,4.00
2023-03-16T17:41:26.949Z,3.60
2023-03-16T17:43:56.865Z,1.40
2023-03-16T17:46:26.433Z,2.03
2023-03-16T17:48:55.468Z,1.65
2023-03-16T17:51:25.462Z,2.92
2023-03-16T17:53:52.191Z,1.88
2023-03-16T17:56:24.424Z,2.20
2023-03-16T17:58:53.906Z,2.08
2023-03-16T18:01:26.481Z,1.50
2023-03-16T18:06:23.881Z,2.60
2023-03-16T18:08:50.442Z,1.70
2023-03-16T18:11:22.799Z,3.25
2023-03-16T18:13:50.989Z,2.10
2023-03-16T18:16:23.136Z,2.50
2023-03-16T18:18:51.846Z,2.80
2023-03-16T18:21:21.779Z,2.78
2023-03-16T18:23:49.359Z,3.55
2023-03-16T18:26:16.352Z,3.55
2023-03-16T18:28:43.815Z,2.33
2023-03-16T18:31:21.346Z,1.80
2023-03-16T18:33:51.125Z,2.20
2023-03-16T18:36:29.419Z,2.10
2023-03-16T18:38:58.169Z,2.53
2023-03-16T18:41:28.058Z,2.42
2023-03-16T18:43:58.248Z,2.53
2023-03-16T18:46:29.862Z,2.85
2023-03-16T18:48:58.962Z,3.38
2023-03-16T18:51:26.539Z,2.53
2023-03-16T18:53:54.082Z,2.30
2023-03-16T18:56:21.264Z,2.67
2023-03-16T18:58:49.334Z,2.47
2023-03-16T19:01:28.778Z,6.28
2023-03-16T19:03:57.712Z,2.75
2023-03-16T19:06:31.465Z,2.30
2023-03-16T19:09:26.951Z,2.10
2023-03-16T19:11:53.628Z,2.17
2023-03-16T19:14:22.518Z,2.63
2023-03-16T19:16:49.426Z,2.45
2023-03-16T19:19:16.966Z,3.45
2023-03-16T19:21:43.700Z,2.58
2023-03-16T19:24:22.741Z,2.28
2023-03-16T19:26:49.425Z,3.00
2023-03-16T19:29:16.158Z,2.00
2023-03-16T19:31:42.881Z,2.00
2023-03-16T19:34:17.146Z,3.00
2023-03-16T19:36:44.203Z,3.15
2023-03-16T19:39:16.235Z,3.17
2023-03-16T19:41:44.853Z,2.17
2023-03-16T19:44:20.487Z,2.47
2023-03-16T19:46:47.831Z,2.08
2023-03-16T19:49:23.350Z,2.15
2023-03-16T19:51:52.192Z,4.20
2023-03-16T19:54:24.058Z,4.82
2023-03-16T19:56:52.432Z,2.88
2023-03-16T19:59:20.067Z,3.55
2023-03-16T20:01:47.081Z,2.88
2023-03-16T20:04:26.081Z,2.65
2023-03-16T20:06:53.898Z,2.40
2023-03-16T20:09:20.898Z,2.30
2023-03-16T20:11:48.492Z,5.38
2023-03-16T20:14:20.786Z,2.80
2023-03-16T20:16:48.200Z,3.28
2023-03-16T20:19:15.808Z,3.58
2023-03-16T20:21:42.683Z,2.90
2023-03-16T20:24:17.534Z,3.10
2023-03-16T20:26:45.622Z,3.22
2023-03-16T20:29:31.091Z,2.80
2023-03-16T20:31:58.109Z,2.53
2023-03-16T20:34:28.364Z,3.20
2023-03-16T20:36:55.919Z,3.05
2023-03-16T20:39:22.657Z,3.90
2023-03-16T20:41:49.738Z,4.00
2023-03-16T20:44:19.149Z,3.30
2023-03-16T20:46:46.043Z,3.20
2023-03-16T20:49:29.828Z,3.60
2023-03-16T20:51:56.608Z,4.05
2023-03-16T20:54:23.220Z,3.63
2023-03-16T20:56:49.867Z,4.25
2023-03-16T20:59:20.074Z,4.35
2023-03-16T21:01:47.926Z,3.85
2023-03-16T21:04:22.384Z,5.00
2023-03-16T21:06:50.847Z,4.20
2023-03-16T21:09:19.328Z,6.53
2023-03-16T21:11:46.560Z,4.55
2023-03-16T21:14:19.943Z,4.43
2023-03-16T21:16:47.492Z,5.38
2023-03-16T21:19:17.769Z,3.95
2023-03-16T21:21:44.742Z,4.75
2023-03-16T21:24:11.706Z,4.03
2023-03-16T21:26:40.084Z,4.63
2023-03-16T21:29:11.329Z,4.78
2023-03-16T21:31:38.085Z,4.65
2023-03-16T21:34:05.629Z,4.20
2023-03-16T21:36:32.195Z,3.78
2023-03-16T21:38:58.732Z,4.05
2023-03-16T21:41:25.620Z,3.97
2023-03-16T21:43:54.392Z,3.95
2023-03-16T21:46:23.796Z,4.05
2023-03-16T21:48:54.615Z,4.20
2023-03-16T21:51:31.218Z,3.80
2023-03-16T21:53:58.108Z,4.22
2023-03-16T21:56:26.153Z,4.28
2023-03-16T21:58:54.138Z,4.93
2023-03-16T22:01:30.209Z,3.80
2023-03-16T22:04:01.702Z,4.45
2023-03-16T22:06:28.697Z,3.90
2023-03-16T22:08:56.452Z,3.42
2023-03-16T22:11:28.078Z,3.95
2023-03-16T22:13:56.605Z,4.13
2023-03-16T22:16:25.921Z,4.15
2023-03-16T22:18:56.509Z,3.95
2023-03-16T22:21:41.096Z,4.47
2023-03-16T22:24:15.764Z,3.40
2023-03-16T22:26:42.562Z,4.03
2023-03-16T22:29:18.634Z,3.88
2023-03-16T22:31:46.903Z,3.33
2023-03-16T22:34:33.409Z,3.25
2023-03-16T22:37:01.601Z,3.45
2023-03-16T22:39:36.138Z,3.42
2023-03-16T22:42:03.679Z,3.90
2023-03-16T22:44:30.313Z,3.20
2023-03-16T22:46:56.811Z,3.80
2023-03-16T22:49:27.891Z,3.10
2023-03-16T22:51:57.275Z,3.47
2023-03-16T22:54:28.353Z,3.58
2023-03-16T22:56:55.048Z,3.05
2023-03-16T22:59:24.990Z,3.53
2023-03-16T23:01:51.756Z,3.42
2023-03-16T23:04:24.630Z,3.85
2023-03-16T23:06:53.348Z,3.88
2023-03-16T23:09:21.767Z,3.67
2023-03-16T23:11:53.586Z,3.78
2023-03-16T23:14:27.143Z,3.83
2023-03-16T23:16:54.020Z,3.53
2023-03-16T23:19:30.638Z,3.53
2023-03-16T23:22:06.091Z,4.07
2023-03-16T23:24:33.435Z,3.80
2023-03-16T23:27:00.296Z,3.45
2023-03-16T23:29:27.598Z,3.83
2023-03-16T23:31:54.663Z,3.30
2023-03-16T23:34:24.800Z,3.50
2023-03-16T23:36:51.806Z,3.50
2023-03-16T23:39:18.559Z,3.17
2023-03-16T23:41:47.865Z,4.22
2023-03-16T23:44:21.873Z,4.43
2023-03-16T23:46:48.809Z,3.80
2023-03-16T23:49:22.312Z,3.67
2023-03-16T23:51:49.462Z,3.17
2023-03-16T23:54:25.345Z,3.67
2023-03-16T23:56:52.403Z,3.97
2023-03-16T23:59:20.845Z,3.53
